Time;durP1;ratioP1;P1;durP2;ratioP2;P2;SDS_P1;SDS_P2;PMS_P1;PMS_P2;Temp;Humidity;BMP_temperature;BMP_pressure;BME280_temperature;BME280_humidity;BME280_pressure;Samples;Min_cycle;Max_cycle;Signal;HPM_P1;HPM_P2
2022/04/07 00:00:48;;;;;;;;;10.50;6.25;;;;;12.29;77.81;99685.94;5098326;27;45274;-68
2022/04/07 00:03:14;;;;;;;;;1.25;1.25;;;;;12.29;77.62;99665.09;5098809;27;47103;-68
2022/04/07 00:05:40;;;;;;;;;1.00;1.00;;;;;12.28;77.68;99660.81;5100352;27;45332;-68
2022/04/07 00:08:05;;;;;;;;;1.00;1.00;;;;;12.28;77.44;99664.25;5100104;27;45473;-68
2022/04/07 00:10:31;;;;;;;;;1.00;1.00;;;;;12.29;77.40;99655.53;5103848;27;45230;-68
2022/04/07 00:12:57;;;;;;;;;1.00;1.00;;;;;12.31;77.30;99643.25;5103822;27;45346;-69
2022/04/07 00:15:23;;;;;;;;;0.75;0.75;;;;;12.33;77.02;99635.34;5104036;27;45279;-68
2022/04/07 00:17:48;;;;;;;;;1.00;1.00;;;;;12.30;76.85;99636.38;5104019;27;45386;-68
2022/04/07 00:20:14;;;;;;;;;3.00;1.25;;;;;12.35;76.89;99633.50;5104021;27;45353;-68
2022/04/07 00:22:40;;;;;;;;;2.25;2.25;;;;;12.36;76.57;99640.41;5102227;27;46992;-68
2022/04/07 00:25:05;;;;;;;;;1.25;0.75;;;;;12.38;76.54;99635.94;5104002;27;45286;-68
2022/04/07 00:27:31;;;;;;;;;1.75;0.75;;;;;12.42;76.21;99633.13;5102183;27;45306;-68
2022/04/07 00:29:57;;;;;;;;;1.00;1.00;;;;;12.41;76.19;99634.06;5104039;27;45470;-68
2022/04/07 00:32:22;;;;;;;;;2.50;1.50;;;;;12.37;76.20;99622.09;5103416;27;47192;-68
2022/04/07 00:34:49;;;;;;;;;2.50;1.50;;;;;12.39;76.11;99625.44;5103912;27;45258;-68
2022/04/07 00:37:16;;;;;;;;;3.00;1.00;;;;;12.42;76.17;99625.31;5099352;27;45233;-68
2022/04/07 00:39:41;;;;;;;;;1.00;1.00;;;;;12.40;75.88;99621.91;5103798;27;45573;-69
2022/04/07 00:42:07;;;;;;;;;1.50;1.50;;;;;12.44;75.91;99609.59;5103434;27;46411;-69
2022/04/07 00:44:32;;;;;;;;;2.50;1.00;;;;;12.48;75.63;99611.94;5103658;27;45480;-69
2022/04/07 00:46:57;;;;;;;;;2.00;1.00;;;;;12.45;75.75;99590.44;5103507;27;45330;-68
2022/04/07 00:49:23;;;;;;;;;3.50;1.00;;;;;12.50;75.43;99598.84;5103614;27;45376;-68
2022/04/07 00:51:49;;;;;;;;;2.00;2.00;;;;;12.51;75.53;99603.13;5103109;27;45598;-67
2022/04/07 00:54:17;;;;;;;;;5.00;1.00;;;;;12.52;75.50;99575.28;5103233;27;45780;-68
2022/04/07 00:56:43;;;;;;;;;3.00;1.00;;;;;12.55;75.25;99585.56;5103366;27;45232;-68
2022/04/07 00:59:14;;;;;;;;;3.25;2.50;;;;;12.55;75.16;99569.91;5103399;27;45391;-68
2022/04/07 01:01:40;;;;;;;;;1.00;1.00;;;;;12.58;75.23;99564.53;5103185;27;45398;-68
2022/04/07 01:04:05;;;;;;;;;1.00;1.00;;;;;12.57;74.73;99553.25;5103241;27;45244;-73
2022/04/07 01:06:31;;;;;;;;;1.00;1.00;;;;;12.59;74.91;99553.19;5103313;27;45433;-74
2022/04/07 01:08:57;;;;;;;;;1.50;1.50;;;;;12.59;74.89;99521.91;5103113;27;45230;-74
2022/04/07 01:11:25;;;;;;;;;2.00;2.00;;;;;12.59;74.89;99521.91;5102882;27;45290;-74
2022/04/07 01:13:52;;;;;;;;;2.00;1.00;;;;;12.58;74.36;99521.06;5103069;27;45725;-74
2022/04/07 01:16:19;;;;;;;;;2.00;0.25;;;;;12.57;74.50;99519.38;5103143;27;45383;-72
2022/04/07 01:18:46;;;;;;;;;1.00;1.00;;;;;12.55;74.81;99521.25;5102913;27;45279;-74
2022/04/07 01:21:14;;;;;;;;;1.00;0.00;;;;;12.51;74.96;99509.31;5102883;27;46495;-75
2022/04/07 01:23:44;;;;;;;;;1.00;1.00;;;;;12.54;74.79;99523.94;5101545;27;45285;-75
2022/04/07 01:26:10;;;;;;;;;3.25;2.00;;;;;12.54;74.94;99519.56;5102956;27;45551;-75
2022/04/07 01:28:36;;;;;;;;;4.00;2.00;;;;;12.54;76.25;99519.56;5102570;27;45505;-72
2022/04/07 01:31:02;;;;;;;;;0.75;0.75;;;;;12.47;77.16;99536.47;5102499;27;45277;-72
2022/04/07 01:33:28;;;;;;;;;3.00;1.75;;;;;12.41;76.76;99527.22;5102816;27;45236;-72
2022/04/07 01:35:54;;;;;;;;;1.75;1.75;;;;;12.36;78.15;99521.41;5097687;27;45299;-74
2022/04/07 01:38:20;;;;;;;;;1.00;1.00;;;;;12.32;77.90;99512.06;5102401;27;45248;-75
2022/04/07 01:40:47;;;;;;;;;3.00;2.00;;;;;12.33;77.92;99515.53;5102510;27;45267;-77
2022/04/07 01:43:15;;;;;;;;;1.50;0.50;;;;;12.34;77.92;99501.56;5101186;27;45279;-78
2022/04/07 01:45:42;;;;;;;;;3.00;1.00;;;;;12.33;77.69;99492.06;5101404;27;45276;-79
2022/04/07 01:48:08;;;;;;;;;2.00;1.00;;;;;12.34;77.82;99493.75;5102613;27;45569;-77
2022/04/07 01:50:36;;;;;;;;;3.00;1.00;;;;;12.37;77.88;99486.59;5102278;27;45252;-79
2022/04/07 01:53:01;;;;;;;;;1.25;1.25;;;;;12.35;77.42;99477.19;5102283;27;45747;-73
2022/04/07 01:55:28;;;;;;;;;2.00;1.00;;;;;12.37;77.38;99480.56;5102503;27;45327;-72
2022/04/07 01:57:54;;;;;;;;;1.00;0.00;;;;;12.38;77.22;99471.81;5102383;27;45265;-71
2022/04/07 02:00:20;;;;;;;;;1.50;0.50;;;;;12.40;77.60;99475.16;5102176;27;45330;-74
2022/04/07 02:02:45;;;;;;;;;1.00;1.00;;;;;12.39;77.50;99474.34;5101971;27;45604;-75
2022/04/07 02:05:12;;;;;;;;;1.50;1.50;;;;;12.41;78.80;99476.84;5102355;27;45299;-76
2022/04/07 02:07:39;;;;;;;;;1.00;1.00;;;;;12.36;78.68;99471.06;5102130;27;45572;-76
2022/04/07 02:10:06;;;;;;;;;1.75;0.75;;;;;12.29;78.97;99462.75;5100724;27;48060;-76
2022/04/07 02:12:35;;;;;;;;;1.00;1.00;;;;;12.30;78.60;99464.44;5102014;27;45569;-76
2022/04/07 02:15:00;;;;;;;;;1.75;1.75;;;;;12.26;79.62;99460.31;5102089;27;45343;-77
2022/04/07 02:17:26;;;;;;;;;3.75;1.00;;;;;12.23;80.10;99457.88;5099892;27;45347;-78
2022/04/07 02:19:56;;;;;;;;;1.00;1.00;;;;;12.19;81.73;99451.97;5100483;27;45370;-77
2022/04/07 02:22:22;;;;;;;;;1.75;1.50;;;;;12.17;80.99;99453.00;5099159;27;45799;-76
2022/04/07 02:24:48;;;;;;;;;1.75;1.75;;;;;12.13;80.89;99443.66;5102128;27;45424;-76
2022/04/07 02:27:14;;;;;;;;;1.25;1.00;;;;;12.13;80.99;99446.28;5101594;27;45317;-73
2022/04/07 02:29:40;;;;;;;;;2.50;1.00;;;;;12.12;80.41;99431.56;5101589;27;45393;-71
2022/04/07 02:32:06;;;;;;;;;4.50;2.25;;;;;12.19;80.95;99428.53;5101091;27;45345;-71
2022/04/07 02:34:31;;;;;;;;;1.00;1.00;;;;;12.22;81.81;99426.72;5102036;27;45309;-70
2022/04/07 02:36:57;;;;;;;;;3.00;2.75;;;;;12.13;81.59;99409.81;5097324;27;45479;-72
2022/04/07 02:39:22;;;;;;;;;3.50;2.00;;;;;12.11;82.05;99409.06;5101719;27;45209;-72
2022/04/07 02:41:48;;;;;;;;;1.00;1.00;;;;;12.09;83.21;99405.72;5101736;27;45272;-72
2022/04/07 02:44:13;;;;;;;;;1.00;1.00;;;;;12.07;82.48;99386.72;5100469;27;45434;-71
2022/04/07 02:46:39;;;;;;;;;1.50;1.50;;;;;12.09;82.25;99384.88;5101652;27;45547;-69
2022/04/07 02:49:05;;;;;;;;;2.25;2.25;;;;;12.12;82.84;99382.94;5100068;27;47280;-69
2022/04/07 02:51:31;;;;;;;;;4.50;2.00;;;;;12.11;83.93;99378.66;5101209;27;45234;-68
2022/04/07 02:53:58;;;;;;;;;1.50;1.50;;;;;12.06;83.91;99374.63;5088045;27;45242;-74
2022/04/07 02:56:27;;;;;;;;;2.50;2.00;;;;;12.08;83.58;99371.00;5101167;27;45402;-74
2022/04/07 02:58:53;;;;;;;;;3.00;2.00;;;;;12.14;83.37;99369.81;5100919;27;45446;-81
2022/04/07 03:01:19;;;;;;;;;1.75;1.75;;;;;12.16;82.78;99357.56;5101112;27;45247;-81
2022/04/07 03:03:45;;;;;;;;;3.00;2.00;;;;;12.16;83.55;99357.56;5101738;27;45254;-82
2022/04/07 03:06:11;;;;;;;;;2.75;0.00;;;;;12.15;84.38;99350.66;5101285;27;45483;-74
2022/04/07 03:08:36;;;;;;;;;1.00;0.25;;;;;12.16;83.80;99347.13;5101106;27;46614;-74
2022/04/07 03:11:02;;;;;;;;;2.50;1.00;;;;;12.22;84.04;99348.59;5101013;27;45463;-74
2022/04/07 03:13:28;;;;;;;;;1.75;1.75;;;;;12.22;83.50;99336.41;5099069;27;45598;-75
2022/04/07 03:15:54;;;;;;;;;0.50;0.50;;;;;12.23;84.02;99332.03;5098672;27;45436;-74
2022/04/07 03:18:19;;;;;;;;;2.75;0.75;;;;;12.25;83.71;99324.97;5098707;27;45420;-74
2022/04/07 03:20:45;;;;;;;;;3.00;2.00;;;;;12.29;83.61;99319.47;5097058;27;45351;-74
2022/04/07 03:23:11;;;;;;;;;1.25;1.25;;;;;12.28;83.87;99296.13;5097234;27;45555;-74
2022/04/07 03:25:39;;;;;;;;;1.50;1.00;;;;;12.28;83.98;99302.19;5098496;27;45751;-74
2022/04/07 03:28:06;;;;;;;;;4.25;3.00;;;;;12.31;83.87;99291.56;5098593;27;46477;-75
2022/04/07 03:30:31;;;;;;;;;4.25;1.50;;;;;12.32;84.10;99295.84;5100868;27;45806;-68
2022/04/07 03:32:57;;;;;;;;;3.00;1.25;;;;;12.33;84.10;99279.31;5101052;27;45420;-68
2022/04/07 03:35:22;;;;;;;;;1.75;1.75;;;;;12.37;83.70;99259.13;5097029;27;45365;-69
2022/04/07 03:37:47;;;;;;;;;1.75;1.00;;;;;12.39;84.15;99283.31;5100411;27;45606;-70
2022/04/07 03:40:13;;;;;;;;;0.50;0.50;;;;;12.40;84.49;99246.75;5100732;27;45363;-70
2022/04/07 03:42:38;;;;;;;;;2.50;1.00;;;;;12.33;84.24;99226.38;5087158;27;45292;-69
2022/04/07 03:45:05;;;;;;;;;2.25;0.75;;;;;12.36;84.66;99228.78;5099735;27;45337;-70
2022/04/07 03:47:31;;;;;;;;;5.00;2.00;;;;;12.38;84.53;99230.38;5099259;27;47070;-66
2022/04/07 03:49:56;;;;;;;;;1.25;1.25;;;;;12.38;84.94;99199.09;5100499;27;45239;-67
2022/04/07 03:52:22;;;;;;;;;3.00;1.00;;;;;12.40;84.79;99199.84;5099133;27;45268;-67
2022/04/07 03:54:48;;;;;;;;;3.00;2.50;;;;;12.44;85.12;99196.16;5100572;27;45473;-68
2022/04/07 03:57:13;;;;;;;;;3.00;3.00;;;;;12.43;85.17;99194.47;5099291;27;45490;-67
2022/04/07 03:59:42;;;;;;;;;2.00;1.00;;;;;12.44;85.97;99182.28;5100422;27;45226;-67
2022/04/07 04:02:08;;;;;;;;;4.00;2.00;;;;;12.41;85.67;99183.31;5100572;27;46761;-68
2022/04/07 04:04:33;;;;;;;;;3.50;1.50;;;;;12.41;85.22;99172.03;5100346;27;45610;-68
2022/04/07 04:07:00;;;;;;;;;5.75;2.50;;;;;12.43;85.79;99165.81;5098782;27;47965;-67
2022/04/07 04:09:25;;;;;;;;;3.00;1.00;;;;;12.47;85.62;99156.88;5098961;27;45653;-68
2022/04/07 04:11:52;;;;;;;;;4.25;2.00;;;;;12.49;85.17;99157.63;5100302;27;45290;-67
2022/04/07 04:14:17;;;;;;;;;4.75;3.75;;;;;12.53;85.27;99157.44;5100138;27;45211;-68
2022/04/07 04:16:43;;;;;;;;;3.25;2.25;;;;;12.56;85.42;99145.06;5098755;27;48469;-68
2022/04/07 04:19:08;;;;;;;;;1.00;1.00;;;;;12.58;85.38;99144.97;5100178;27;45310;-68
2022/04/07 04:21:33;;;;;;;;;2.00;2.00;;;;;12.60;85.18;99140.47;5100582;27;45258;-68
2022/04/07 04:23:59;;;;;;;;;1.75;1.25;;;;;12.61;85.14;99140.38;5099791;27;45314;-68
2022/04/07 04:26:24;;;;;;;;;2.75;1.00;;;;;12.61;85.64;99145.59;5100267;27;46038;-68
2022/04/07 04:28:49;;;;;;;;;1.75;1.00;;;;;12.61;86.76;99134.34;5099774;27;45307;-68
2022/04/07 04:31:15;;;;;;;;;2.50;1.50;;;;;12.61;85.77;99136.94;5100095;27;45420;-68
2022/04/07 04:33:40;;;;;;;;;2.00;1.00;;;;;12.53;87.63;99144.41;5100162;27;45288;-68
2022/04/07 04:36:06;;;;;;;;;2.75;2.25;;;;;12.51;87.14;99120.22;5095753;27;45281;-67
2022/04/07 04:38:31;;;;;;;;;2.25;2.00;;;;;12.54;87.64;99130.44;5099882;27;45281;-67
2022/04/07 04:40:57;;;;;;;;;3.00;2.00;;;;;12.58;86.52;99124.09;5099941;27;45459;-67
2022/04/07 04:43:22;;;;;;;;;2.75;1.00;;;;;12.61;86.78;99131.72;5099808;27;45323;-68
2022/04/07 04:45:48;;;;;;;;;4.00;1.75;;;;;12.59;87.76;99134.44;5099791;27;46232;-67
2022/04/07 04:48:13;;;;;;;;;2.00;2.00;;;;;12.56;87.92;99105.97;5099811;27;45300;-66
2022/04/07 04:50:38;;;;;;;;;2.00;2.00;;;;;12.54;88.37;99110.44;5099757;27;45404;-65
2022/04/07 04:53:04;;;;;;;;;2.25;2.25;;;;;12.56;88.07;99110.34;5097953;27;45838;-65
2022/04/07 04:55:29;;;;;;;;;3.25;2.25;;;;;12.54;88.19;99110.44;5101378;27;45447;-65
2022/04/07 04:57:54;;;;;;;;;1.50;1.50;;;;;12.56;88.06;99113.78;5102918;27;45409;-72
2022/04/07 05:00:20;;;;;;;;;3.00;2.00;;;;;12.52;88.67;99101.03;5103007;27;45392;-74
2022/04/07 05:02:45;;;;;;;;;5.00;2.00;;;;;12.51;88.39;99086.34;5103205;27;45432;-73
2022/04/07 05:05:12;;;;;;;;;1.50;1.00;;;;;12.51;88.12;99091.56;5102284;27;46136;-73
2022/04/07 05:07:38;;;;;;;;;3.00;1.75;;;;;12.58;87.23;99100.66;5102681;27;45650;-73
2022/04/07 05:10:04;;;;;;;;;2.75;1.50;;;;;12.61;87.09;99090.88;5102956;27;45176;-72
2022/04/07 05:12:30;;;;;;;;;3.75;0.75;;;;;12.68;86.98;99101.78;5102712;27;45218;-75
2022/04/07 05:14:55;;;;;;;;;3.50;3.00;;;;;12.73;86.44;99092.72;5102650;27;45289;-70
2022/04/07 05:17:21;;;;;;;;;2.50;1.00;;;;;12.72;85.93;99077.19;5102978;27;45156;-78
2022/04/07 05:19:47;;;;;;;;;2.00;2.00;;;;;12.78;85.96;99085.44;5102840;27;45504;-71
2022/04/07 05:22:16;;;;;;;;;2.50;1.25;;;;;12.83;85.73;99079.13;5102524;27;45341;-71
2022/04/07 05:24:41;;;;;;;;;5.00;3.00;;;;;12.91;85.54;99069.03;5100988;27;47670;-69
2022/04/07 05:27:06;;;;;;;;;3.50;2.00;;;;;12.95;85.25;99067.91;5102473;27;45544;-67
2022/04/07 05:29:32;;;;;;;;;3.00;2.00;;;;;12.98;85.19;99076.38;5102562;27;45318;-74
2022/04/07 05:31:57;;;;;;;;;2.75;1.75;;;;;13.02;84.76;99061.38;5102488;27;45289;-73
2022/04/07 05:34:22;;;;;;;;;4.50;3.25;;;;;13.01;84.62;99060.56;5101942;27;46291;-73
2022/04/07 05:36:48;;;;;;;;;10.50;8.00;;;;;13.04;84.59;99062.13;5097388;27;45273;-72
2022/04/07 05:39:16;;;;;;;;;3.25;2.50;;;;;13.02;85.04;99056.16;5100651;27;45315;-72
2022/04/07 05:41:41;;;;;;;;;15.25;9.50;;;;;13.01;84.88;99042.28;5101948;27;45260;-71
2022/04/07 05:44:07;;;;;;;;;9.00;6.25;;;;;13.00;85.26;99032.78;5102046;27;46473;-72
2022/04/07 05:46:32;;;;;;;;;6.75;6.75;;;;;13.02;84.84;99028.31;5102317;27;45373;-71
2022/04/07 05:48:57;;;;;;;;;6.25;5.00;;;;;13.02;84.53;99025.72;5102339;27;45256;-67
2022/04/07 05:51:23;;;;;;;;;4.25;4.25;;;;;13.00;84.00;99027.56;5102090;27;45331;-68
2022/04/07 05:53:48;;;;;;;;;3.00;2.75;;;;;12.95;83.56;99021.81;5101823;27;46355;-73
2022/04/07 05:56:13;;;;;;;;;6.00;2.50;;;;;12.99;83.58;99023.28;5101505;27;45448;-72
2022/04/07 05:58:39;;;;;;;;;3.25;2.00;;;;;13.02;83.07;99020.50;5087958;27;46611;-67
2022/04/07 06:01:04;;;;;;;;;2.00;1.00;;;;;13.05;83.02;99020.28;5102003;27;45444;-73
2022/04/07 06:03:31;;;;;;;;;2.00;1.25;;;;;13.10;82.62;99007.78;5101437;27;45362;-68
2022/04/07 06:05:57;;;;;;;;;2.50;1.00;;;;;13.10;82.34;99020.00;5101149;27;45317;-67
2022/04/07 06:08:22;;;;;;;;;1.50;1.00;;;;;13.13;82.19;99016.34;5101272;27;45523;-68
2022/04/07 06:10:48;;;;;;;;;1.50;1.00;;;;;13.13;81.96;99016.34;5101818;27;45357;-68
2022/04/07 06:13:14;;;;;;;;;4.75;1.50;;;;;13.13;80.92;99021.56;5101743;27;45276;-66
2022/04/07 06:15:40;;;;;;;;;1.75;1.75;;;;;13.13;81.24;99008.50;5101829;27;45414;-72
2022/04/07 06:18:06;;;;;;;;;1.25;1.00;;;;;13.18;81.48;99009.06;5088021;27;45157;-68
2022/04/07 06:20:32;;;;;;;;;0.00;0.00;;;;;13.16;81.26;99003.94;5101700;27;45206;-72
2022/04/07 06:22:57;;;;;;;;;4.25;3.00;;;;;13.21;81.25;99001.88;5100287;27;46585;-69
2022/04/07 06:25:23;;;;;;;;;1.75;1.00;;;;;13.20;81.19;99017.63;5099395;27;45385;-71
2022/04/07 06:27:49;;;;;;;;;2.00;1.00;;;;;13.19;81.47;99008.97;5100836;27;45314;-74
2022/04/07 06:30:16;;;;;;;;;4.25;1.50;;;;;13.21;81.40;98993.22;5101179;27;45301;-72
2022/04/07 06:32:42;;;;;;;;;1.25;1.25;;;;;13.24;81.40;98987.81;5101376;27;45318;-73
2022/04/07 06:35:09;;;;;;;;;0.00;0.00;;;;;13.25;81.70;98992.09;5099845;27;45259;-73
2022/04/07 06:37:51;;;;;;;;;2.25;1.00;;;;;13.21;81.83;98998.44;5098885;27;45275;-73
2022/04/07 06:40:21;;;;;;;;;2.00;2.00;;;;;13.20;82.34;99001.97;5101306;27;45311;-73
2022/04/07 06:42:52;;;;;;;;;5.25;3.00;;;;;13.18;82.75;98989.03;5087016;27;48259;-73
2022/04/07 06:45:18;;;;;;;;;3.50;1.75;;;;;13.23;82.61;98991.38;5101015;27;45235;-68
2022/04/07 06:47:44;;;;;;;;;2.75;2.50;;;;;13.21;83.15;98993.22;5101327;27;45315;-67
2022/04/07 06:50:12;;;;;;;;;2.75;2.75;;;;;13.22;82.89;98992.31;5100911;27;45464;-73
2022/04/07 06:52:38;;;;;;;;;3.00;3.00;;;;;13.21;83.12;98982.78;5100887;27;45390;-72
2022/04/07 06:55:04;;;;;;;;;3.00;2.00;;;;;13.21;82.77;98970.56;5101103;27;45405;-70
2022/04/07 06:57:30;;;;;;;;;2.25;1.50;;;;;13.23;82.64;98987.00;5100316;27;45455;-70
2022/04/07 06:59:55;;;;;;;;;2.00;1.25;;;;;13.26;82.53;98975.50;5098878;27;45309;-69
2022/04/07 07:02:21;;;;;;;;;1.00;1.00;;;;;13.34;82.67;98965.38;5098632;27;46390;-72
2022/04/07 07:04:46;;;;;;;;;2.50;2.50;;;;;13.37;82.21;98978.22;5098200;27;45425;-70
2022/04/07 07:07:11;;;;;;;;;3.00;0.00;;;;;13.39;82.05;98981.56;5097873;27;45426;-70
2022/04/07 07:09:38;;;;;;;;;4.50;1.50;;;;;13.40;82.17;98964.97;5099019;27;45145;-72
2022/04/07 07:12:04;;;;;;;;;2.00;0.50;;;;;13.45;81.98;98956.84;5099053;27;48228;-72
2022/04/07 07:14:29;;;;;;;;;3.75;1.00;;;;;13.50;82.32;98966.03;5100683;27;45222;-69
2022/04/07 07:16:54;;;;;;;;;2.25;1.75;;;;;13.47;82.05;98960.19;5100750;27;45264;-70
2022/04/07 07:19:26;;;;;;;;;3.00;0.25;;;;;13.46;82.46;98971.56;5100823;27;45330;-69
2022/04/07 07:21:55;;;;;;;;;1.00;0.00;;;;;13.52;82.23;98953.72;5100224;27;45465;-69
2022/04/07 07:24:20;;;;;;;;;6.25;1.50;;;;;13.51;82.20;98954.66;5100654;27;45229;-70
2022/04/07 07:26:46;;;;;;;;;1.00;1.00;;;;;13.55;82.10;98956.09;5100528;27;45641;-71
2022/04/07 07:29:11;;;;;;;;;2.00;1.00;;;;;13.53;82.43;98951.94;5100461;27;45377;-71
2022/04/07 07:31:37;;;;;;;;;0.00;0.00;;;;;13.56;82.40;98954.34;5100624;27;45395;-71
2022/04/07 07:34:05;;;;;;;;;2.00;1.75;;;;;13.60;82.49;98954.00;5100359;27;45460;-71
2022/04/07 07:36:30;;;;;;;;;2.00;1.00;;;;;13.66;82.61;98955.38;5095436;27;45532;-68
2022/04/07 07:38:56;;;;;;;;;1.00;1.00;;;;;13.68;82.40;98937.84;5100232;27;45384;-66
2022/04/07 07:41:25;;;;;;;;;2.00;1.00;;;;;13.73;82.36;98943.56;5100684;27;46437;-65
2022/04/07 07:43:51;;;;;;;;;1.00;1.00;;;;;13.79;82.73;98955.34;5100141;27;45214;-68
2022/04/07 07:46:20;;;;;;;;;1.00;0.50;;;;;13.86;82.57;98954.84;5100592;27;45394;-65
2022/04/07 07:48:45;;;;;;;;;2.00;2.00;;;;;13.86;82.76;98933.13;5100082;27;45382;-65
2022/04/07 07:51:11;;;;;;;;;1.00;0.00;;;;;13.83;82.80;98939.41;5100509;27;45827;-64
2022/04/07 07:53:37;;;;;;;;;2.00;1.00;;;;;13.88;82.20;98949.50;5095052;27;45736;-65
2022/04/07 07:56:03;;;;;;;;;1.00;1.00;;;;;13.95;81.90;98927.25;5097035;27;45474;-66
2022/04/07 07:58:28;;;;;;;;;0.00;0.00;;;;;14.01;81.85;98937.25;5099944;27;45502;-65
2022/04/07 08:00:54;;;;;;;;;1.00;1.00;;;;;14.08;81.92;98932.44;5100199;27;45206;-65
2022/04/07 08:03:20;;;;;;;;;2.00;0.25;;;;;14.14;82.03;98938.06;5100110;27;46791;-66
2022/04/07 08:05:45;;;;;;;;;1.00;1.00;;;;;14.26;81.56;98958.13;5099057;27;45240;-66
2022/04/07 08:08:11;;;;;;;;;0.00;0.00;;;;;14.33;81.23;98942.81;5099255;27;45212;-66
2022/04/07 08:10:37;;;;;;;;;1.00;1.00;;;;;14.31;81.08;98944.72;5099547;27;46230;-67
2022/04/07 08:13:02;;;;;;;;;2.50;1.50;;;;;14.38;81.11;98932.03;5099172;27;45453;-67
2022/04/07 08:15:28;;;;;;;;;0.00;0.00;;;;;14.35;80.08;98919.19;5097175;27;45394;-67
2022/04/07 08:17:53;;;;;;;;;0.00;0.00;;;;;14.40;80.47;98932.75;5097521;27;45621;-69
2022/04/07 08:20:19;;;;;;;;;0.00;0.00;;;;;14.54;80.56;98928.25;5096701;27;46691;-67
2022/04/07 08:22:44;;;;;;;;;0.25;0.00;;;;;14.60;80.56;98919.09;5098427;27;45377;-67
2022/04/07 08:25:10;;;;;;;;;1.00;0.00;;;;;14.66;80.29;98917.84;5099828;27;45376;-66
2022/04/07 08:27:36;;;;;;;;;0.00;0.00;;;;;14.70;79.96;98920.13;5098098;27;45629;-65
2022/04/07 08:30:02;;;;;;;;;0.00;0.00;;;;;14.78;80.02;98909.09;5100911;27;45682;-66
2022/04/07 08:32:31;;;;;;;;;1.00;0.00;;;;;14.91;79.76;98913.31;5102219;27;45544;-66
2022/04/07 08:34:58;;;;;;;;;1.25;1.00;;;;;15.08;79.23;98912.03;5103769;27;45180;-67
2022/04/07 08:37:23;;;;;;;;;0.00;0.00;;;;;15.26;78.50;98912.44;5099688;27;45418;-67
2022/04/07 08:39:50;;;;;;;;;0.00;0.00;;;;;15.35;76.32;98911.72;5103558;27;45401;-65
2022/04/07 08:42:20;;;;;;;;;0.50;0.00;;;;;15.36;76.19;98910.78;5103541;27;45335;-68
2022/04/07 08:44:49;;;;;;;;;0.25;0.00;;;;;15.49;75.95;98890.56;5102487;27;45278;-67
2022/04/07 08:47:18;;;;;;;;;2.00;1.00;;;;;15.55;75.27;98897.13;5102230;27;45366;-67
2022/04/07 08:49:44;;;;;;;;;0.00;0.00;;;;;15.65;74.84;98908.59;5103227;27;47174;-67
2022/04/07 08:52:10;;;;;;;;;0.50;0.00;;;;;15.62;73.83;98902.75;5102746;27;45377;-68
2022/04/07 08:54:35;;;;;;;;;1.50;0.00;;;;;15.68;74.19;98900.50;5103342;27;45421;-67
2022/04/07 08:57:01;;;;;;;;;0.00;0.00;;;;;15.80;73.98;98902.13;5103016;27;45294;-67
2022/04/07 08:59:26;;;;;;;;;0.00;0.00;;;;;15.92;72.90;98886.41;5102966;27;45734;-66
2022/04/07 09:02:01;;;;;;;;;0.00;0.00;;;;;15.89;72.72;98908.47;5102976;27;45445;-70
2022/04/07 09:04:29;;;;;;;;;0.00;0.00;;;;;16.00;73.12;98916.28;5102032;27;45306;-70
2022/04/07 09:06:55;;;;;;;;;0.00;0.00;;;;;16.09;72.18;98902.47;5102677;27;45329;-70
2022/04/07 09:09:22;;;;;;;;;0.00;0.00;;;;;16.04;72.07;98920.34;5102622;27;46465;-62
2022/04/07 09:11:53;;;;;;;;;0.00;0.00;;;;;16.03;72.18;98899.53;5102956;27;45242;-62
2022/04/07 09:14:18;;;;;;;;;0.75;0.75;;;;;15.96;71.22;98922.72;5101495;27;45335;-62
2022/04/07 09:16:44;;;;;;;;;1.25;1.25;;;;;15.97;71.92;98897.38;5103051;27;45368;-64
2022/04/07 09:19:09;;;;;;;;;0.00;0.00;;;;;16.07;72.58;98911.41;5102429;27;45499;-63
2022/04/07 09:21:36;;;;;;;;;0.00;0.00;;;;;16.16;71.65;98904.59;5102834;27;45370;-62
2022/04/07 09:24:05;;;;;;;;;1.75;0.00;;;;;16.15;71.36;98879.34;5101696;27;45363;-62
2022/04/07 09:26:35;;;;;;;;;0.00;0.00;;;;;16.24;71.67;98883.88;5102769;27;45454;-62
2022/04/07 09:29:08;;;;;;;;;2.50;0.00;;;;;16.36;70.54;98895.97;5102204;27;46160;-61
2022/04/07 09:31:37;;;;;;;;;0.00;0.00;;;;;16.32;71.03;98905.03;5102812;27;45722;-61
2022/04/07 09:34:03;;;;;;;;;0.00;0.00;;;;;16.42;71.10;98898.13;5102891;27;45292;-62
2022/04/07 09:36:29;;;;;;;;;2.00;1.00;;;;;16.47;70.80;98905.59;5100466;27;45353;-62
2022/04/07 09:38:55;;;;;;;;;0.00;0.00;;;;;16.40;70.89;98903.47;5102068;27;46236;-63
2022/04/07 09:41:22;;;;;;;;;1.75;1.00;;;;;16.55;69.81;98904.00;5101003;27;45630;-63
2022/04/07 09:43:49;;;;;;;;;2.25;1.50;;;;;16.46;68.76;98910.03;5100470;27;45383;-63
2022/04/07 09:46:17;;;;;;;;;3.00;1.00;;;;;16.45;69.64;98934.56;5102401;27;45307;-63
2022/04/07 09:49:07;;;;;;;;;0.00;0.00;;;;;16.32;69.44;98916.38;5102218;27;45432;-63
2022/04/07 09:51:37;;;;;;;;;0.75;0.00;;;;;16.25;70.28;98930.09;5102040;27;45481;-63
2022/04/07 09:54:05;;;;;;;;;0.00;0.00;;;;;16.18;70.13;98926.28;5088993;27;45227;-63
2022/04/07 09:56:30;;;;;;;;;1.00;0.00;;;;;15.98;72.22;98954.88;5102341;27;45215;-63
2022/04/07 09:58:56;;;;;;;;;0.50;0.00;;;;;15.82;73.35;98936.94;5101974;27;46276;-62
2022/04/07 10:01:23;;;;;;;;;0.00;0.00;;;;;15.73;75.16;98960.38;5102038;27;45238;-62
2022/04/07 10:03:50;;;;;;;;;0.00;0.00;;;;;15.66;75.39;98967.88;5102369;27;45325;-63
2022/04/07 10:06:16;;;;;;;;;0.50;0.50;;;;;15.58;76.60;98970.19;5101868;27;45294;-63
2022/04/07 10:08:42;;;;;;;;;0.00;0.00;;;;;15.37;77.78;98983.13;5101486;27;46343;-62
2022/04/07 10:11:08;;;;;;;;;0.00;0.00;;;;;15.11;88.09;99015.63;5101803;27;45353;-62
2022/04/07 10:13:36;;;;;;;;;1.00;1.00;;;;;14.67;100.00;99030.16;5101061;27;45235;-62
2022/04/07 10:16:04;;;;;;;;;1.75;1.00;;;;;14.38;100.00;99032.16;5086465;27;45448;-62
2022/04/07 10:18:45;;;;;;;;;0.25;0.25;;;;;14.06;100.00;99036.22;5100876;27;46111;-61
2022/04/07 10:21:29;;;;;;;;;0.50;0.00;;;;;14.09;100.00;99041.22;5100537;27;45347;-61
2022/04/07 10:24:15;;;;;;;;;0.50;0.50;;;;;14.20;100.00;99039.50;5101315;27;45444;-62
2022/04/07 10:26:46;;;;;;;;;1.00;1.00;;;;;14.34;100.00;99046.41;5101820;27;45412;-60
2022/04/07 10:29:24;;;;;;;;;2.75;2.00;;;;;14.46;100.00;99063.88;5101400;27;45711;-61
2022/04/07 10:32:09;;;;;;;;;1.50;1.00;;;;;14.58;99.21;99067.41;5100259;27;45462;-61
2022/04/07 10:34:34;;;;;;;;;0.50;0.50;;;;;14.66;98.33;99074.72;5099628;27;45515;-61
2022/04/07 10:37:06;;;;;;;;;0.00;0.00;;;;;14.74;91.94;99083.69;5095192;27;45391;-60
2022/04/07 10:39:35;;;;;;;;;0.25;0.25;;;;;14.80;88.89;99098.91;5101220;27;45709;-62
2022/04/07 10:42:01;;;;;;;;;0.00;0.00;;;;;14.82;83.24;99088.38;5100730;27;45127;-62
2022/04/07 10:44:28;;;;;;;;;1.75;1.75;;;;;14.85;84.65;99091.59;5099793;27;45179;-62
2022/04/07 10:47:13;;;;;;;;;2.50;1.00;;;;;14.88;84.23;99112.31;5100796;27;45341;-61
2022/04/07 10:49:46;;;;;;;;;0.00;0.00;;;;;14.85;81.00;99103.84;5098182;27;46592;-61
2022/04/07 10:52:26;;;;;;;;;0.75;0.50;;;;;14.81;81.18;99102.38;5097415;27;45639;-61
2022/04/07 10:55:12;;;;;;;;;1.50;0.75;;;;;14.93;82.30;99101.50;5099604;27;45364;-61
2022/04/07 10:58:09;;;;;;;;;1.50;0.00;;;;;15.11;83.85;99112.44;5097732;27;45593;-62
2022/04/07 11:00:38;;;;;;;;;1.25;1.25;;;;;15.22;79.56;99099.44;5097500;27;45545;-61
2022/04/07 11:03:18;;;;;;;;;0.00;0.00;;;;;15.32;77.41;99121.34;5100402;27;45310;-61
2022/04/07 11:06:21;;;;;;;;;0.00;0.00;;;;;15.35;74.68;99122.91;5100373;27;45400;-62
2022/04/07 11:08:46;;;;;;;;;0.00;0.00;;;;;15.33;73.38;99122.19;5086374;27;45370;-62
2022/04/07 11:11:51;;;;;;;;;1.00;0.75;;;;;15.29;76.07;99142.53;5100741;27;46547;-62
2022/04/07 11:14:18;;;;;;;;;0.00;0.00;;;;;15.21;72.70;99139.59;5100246;27;45311;-62
2022/04/07 11:16:44;;;;;;;;;1.00;0.00;;;;;15.17;73.28;99140.78;5101036;27;45250;-61
2022/04/07 11:19:28;;;;;;;;;0.50;0.50;;;;;15.17;75.46;99133.75;5097665;27;45380;-62
2022/04/07 11:22:07;;;;;;;;;0.00;0.00;;;;;15.15;69.02;99119.13;5099101;27;48137;-64
2022/04/07 11:24:39;;;;;;;;;1.00;1.00;;;;;15.03;68.96;99131.31;5099752;27;45473;-62
2022/04/07 11:27:38;;;;;;;;;0.00;0.00;;;;;14.94;67.44;99142.41;5097068;27;45187;-61
2022/04/07 11:30:05;;;;;;;;;0.25;0.00;;;;;15.04;68.28;99146.06;5087513;27;45645;-61
2022/04/07 11:32:30;;;;;;;;;0.50;0.00;;;;;15.13;69.66;99128.88;5081874;27;45821;-61
2022/04/07 11:34:58;;;;;;;;;0.00;0.00;;;;;15.26;68.27;99163.69;5100250;27;45320;-61